createdAt,value
2018-08-24T00:00:24.167Z,80.87
2018-08-24T00:01:24.141Z,80.36
2018-08-24T00:02:24.169Z,80.36
2018-08-24T00:03:24.122Z,81.17
2018-08-24T00:04:24.128Z,80.46
2018-08-24T00:05:24.094Z,80.22
2018-08-24T00:06:24.118Z,80.06
2018-08-24T00:07:24.144Z,79.32
2018-08-24T00:08:24.079Z,79.92
2018-08-24T00:09:24.055Z,79.82
2018-08-24T00:10:24.081Z,79.32
2018-08-24T00:11:24.057Z,80.02
2018-08-24T00:12:24.022Z,79.92
2018-08-24T00:13:24.042Z,80.83
2018-08-24T00:14:23.997Z,81.33
2018-08-24T00:15:23.985Z,80.52
2018-08-24T00:16:23.975Z,80.32
2018-08-24T00:17:23.966Z,80.12
2018-08-24T00:18:23.990Z,80.73
2018-08-24T00:19:24.015Z,80.32
2018-08-24T00:20:23.939Z,81.63
2018-08-24T00:21:23.942Z,80.52
2018-08-24T00:22:23.923Z,79.82
2018-08-24T00:23:23.898Z,80.93
2018-08-24T00:24:23.924Z,81.23
2018-08-24T00:25:23.905Z,80.93
2018-08-24T00:26:23.872Z,80.83
2018-08-24T00:27:23.875Z,80.22
2018-08-24T00:28:23.880Z,80.08
2018-08-24T00:29:23.860Z,79.88
2018-08-24T00:30:23.831Z,80.89
2018-08-24T00:31:23.821Z,79.68
2018-08-24T00:32:23.808Z,80.08
2018-08-24T00:33:23.807Z,79.99
2018-08-24T00:34:23.822Z,80.08
2018-08-24T00:35:23.768Z,79.68
2018-08-24T00:36:23.846Z,79.79
2018-08-24T00:37:23.758Z,79.99
2018-08-24T00:38:24.051Z,79.58
2018-08-24T00:39:23.788Z,79.38
2018-08-24T00:40:23.824Z,79.79
2018-08-24T00:41:23.788Z,79.58
2018-08-24T00:42:24.007Z,80.45
2018-08-24T00:43:23.790Z,80.39
2018-08-24T00:44:23.809Z,79.88
2018-08-24T00:45:23.672Z,80.29
2018-08-24T00:46:23.654Z,81.59
2018-08-24T00:47:23.651Z,80.75
2018-08-24T00:48:23.649Z,81.19
2018-08-24T00:49:23.626Z,81.09
2018-08-24T00:50:23.814Z,81.59
2018-08-24T00:51:23.610Z,81.90
2018-08-24T00:52:23.596Z,81.90
2018-08-24T00:53:23.620Z,82.10
2018-08-24T00:54:23.568Z,82.40
2018-08-24T00:55:23.592Z,81.99
2018-08-24T00:56:23.562Z,81.59
2018-08-24T00:57:23.537Z,83.20
2018-08-24T00:58:23.527Z,82.90
2018-08-24T00:59:23.529Z,83.00
2018-08-24T01:00:23.499Z,83.51
2018-08-24T01:01:23.548Z,84.41
2018-08-24T01:02:23.496Z,84.21
2018-08-24T01:03:23.514Z,85.11
2018-08-24T01:04:23.462Z,85.92
2018-08-24T01:05:23.465Z,86.46
2018-08-24T01:06:23.456Z,87.57
2018-08-24T01:07:23.500Z,88.38
2018-08-24T01:08:23.412Z,88.58
2018-08-24T01:09:23.411Z,88.32
2018-08-24T01:10:23.402Z,88.52
2018-08-24T01:11:23.763Z,89.23
2018-08-24T01:12:23.407Z,89.23
2018-08-24T01:13:23.494Z,88.92
2018-08-24T01:14:23.600Z,91.14
2018-08-24T01:15:23.548Z,91.78
2018-08-24T01:16:23.454Z,93.85
2018-08-24T01:17:23.345Z,93.59
2018-08-24T01:18:23.316Z,93.13
2018-08-24T01:19:23.315Z,94.79
2018-08-24T01:20:23.381Z,95.43
2018-08-24T01:21:23.286Z,96.65
2018-08-24T01:22:23.300Z,98.11
2018-08-24T01:23:23.259Z,98.05
2018-08-24T01:24:26.204Z,98.86
2018-08-24T01:25:23.327Z,98.76
2018-08-24T01:26:23.570Z,99.32
2018-08-24T01:27:23.365Z,99.32
2018-08-24T01:28:23.331Z,99.41
2018-08-24T01:29:24.773Z,99.99
2018-08-24T01:30:23.314Z,99.99
2018-08-24T01:31:23.294Z,99.99
2018-08-24T01:32:23.172Z,99.99
2018-08-24T01:33:23.147Z,99.99
2018-08-24T01:34:23.163Z,99.99
2018-08-24T01:35:23.712Z,99.99
2018-08-24T01:36:23.137Z,99.99
2018-08-24T01:37:23.162Z,99.99
2018-08-24T01:38:23.100Z,99.99
2018-08-24T01:39:23.095Z,99.99
2018-08-24T01:40:23.070Z,99.99
2018-08-24T01:41:23.126Z,99.99
2018-08-24T01:42:23.093Z,99.99
2018-08-24T01:43:23.053Z,99.99
2018-08-24T01:44:23.064Z,99.99
2018-08-24T01:45:23.047Z,99.99
2018-08-24T01:46:23.005Z,99.99
2018-08-24T01:47:23.039Z,99.99
2018-08-24T01:48:23.020Z,99.99
2018-08-24T01:49:22.986Z,99.99
2018-08-24T01:50:23.020Z,99.99
2018-08-24T01:51:22.957Z,99.99
2018-08-24T01:52:22.964Z,99.99
2018-08-24T01:53:22.987Z,99.99
2018-08-24T01:54:22.937Z,99.99
2018-08-24T01:55:22.921Z,99.99
2018-08-24T01:56:22.926Z,99.99
2018-08-24T01:57:22.888Z,99.99
2018-08-24T01:58:22.906Z,99.99
2018-08-24T01:59:22.878Z,99.99
2018-08-24T02:00:22.866Z,99.99
2018-08-24T02:01:22.842Z,99.99
2018-08-24T02:02:22.859Z,99.99
2018-08-24T02:03:22.830Z,99.99
2018-08-24T02:04:22.830Z,99.99
2018-08-24T02:05:22.824Z,99.99
2018-08-24T02:06:22.792Z,99.99
2018-08-24T02:07:22.791Z,99.99
2018-08-24T02:08:22.790Z,99.99
2018-08-24T02:09:22.839Z,99.99
2018-08-24T02:10:22.747Z,99.99
2018-08-24T02:11:22.759Z,99.99
2018-08-24T02:12:22.752Z,99.99
2018-08-24T02:13:22.761Z,99.99
2018-08-24T02:14:23.270Z,99.99
2018-08-24T02:15:22.979Z,99.99
2018-08-24T02:16:22.774Z,99.99
2018-08-24T02:17:22.756Z,99.99
2018-08-24T02:18:22.770Z,99.99
2018-08-24T02:19:22.798Z,99.99
2018-08-24T02:20:22.802Z,99.99
2018-08-24T02:21:23.197Z,99.99
2018-08-24T02:22:22.621Z,99.99
2018-08-24T02:23:22.623Z,99.99
2018-08-24T02:24:22.596Z,99.99
2018-08-24T02:25:22.649Z,99.99
2018-08-24T02:26:22.593Z,99.99
2018-08-24T02:27:22.594Z,99.99
2018-08-24T02:28:22.547Z,99.99
2018-08-24T02:29:22.542Z,99.99
2018-08-24T02:30:22.553Z,99.99
2018-08-24T02:31:22.616Z,99.99
2018-08-24T02:32:22.518Z,99.99
2018-08-24T02:33:22.498Z,99.99
2018-08-24T02:34:22.489Z,99.99
2018-08-24T02:35:22.517Z,99.99
2018-08-24T02:36:22.482Z,99.99
2018-08-24T02:37:22.482Z,99.99
2018-08-24T02:38:22.472Z,99.99
2018-08-24T02:39:22.428Z,99.99
2018-08-24T02:40:22.419Z,99.99
2018-08-24T02:41:22.453Z,99.99
2018-08-24T02:42:22.416Z,99.99
2018-08-24T02:43:22.436Z,99.99
2018-08-24T02:44:22.446Z,99.99
2018-08-24T02:45:22.368Z,99.99
2018-08-24T02:46:22.372Z,99.99
2018-08-24T02:47:22.410Z,99.99
2018-08-24T02:48:22.329Z,99.99
2018-08-24T02:49:22.321Z,99.99
2018-08-24T02:50:22.326Z,99.99
2018-08-24T02:51:22.340Z,99.99
2018-08-24T02:52:22.334Z,99.99
2018-08-24T02:53:22.317Z,99.99
2018-08-24T02:54:22.284Z,99.99
2018-08-24T02:55:22.261Z,99.99
2018-08-24T02:56:22.289Z,99.99
2018-08-24T02:57:22.291Z,99.99
2018-08-24T02:58:22.242Z,99.99
2018-08-24T02:59:23.214Z,99.99
2018-08-24T03:00:23.199Z,99.99
2018-08-24T03:01:23.244Z,99.99
2018-08-24T03:02:22.738Z,99.99
2018-08-24T03:03:22.353Z,99.99
2018-08-24T03:04:22.272Z,99.99
2018-08-24T03:05:22.434Z,99.99
2018-08-24T03:06:22.138Z,99.99
2018-08-24T03:07:22.145Z,99.99
2018-08-24T03:08:22.188Z,99.99
2018-08-24T03:09:22.111Z,99.99
2018-08-24T03:10:22.127Z,99.99
2018-08-24T03:11:22.082Z,99.99
2018-08-24T03:12:22.090Z,99.99
2018-08-24T03:13:22.081Z,99.99
2018-08-24T03:14:22.053Z,99.99
2018-08-24T03:15:22.051Z,99.99
2018-08-24T03:16:22.157Z,99.99
2018-08-24T03:17:22.069Z,99.99
2018-08-24T03:18:22.009Z,99.99
2018-08-24T03:19:22.015Z,99.99
2018-08-24T03:20:22.013Z,99.99
2018-08-24T03:21:21.990Z,99.99
2018-08-24T03:22:22.027Z,99.99
2018-08-24T03:23:21.960Z,99.99
2018-08-24T03:24:21.967Z,99.99
2018-08-24T03:25:21.934Z,99.99
2018-08-24T03:26:21.982Z,99.99
2018-08-24T03:27:21.917Z,99.99
2018-08-24T03:28:21.950Z,99.99
2018-08-24T03:29:21.893Z,99.99
2018-08-24T03:30:21.891Z,99.99
2018-08-24T03:31:21.868Z,99.99
2018-08-24T03:32:21.857Z,99.99
2018-08-24T03:33:21.894Z,99.99
2018-08-24T03:34:21.854Z,99.99
2018-08-24T03:35:21.843Z,99.99
2018-08-24T03:36:21.821Z,99.99
2018-08-24T03:37:21.811Z,99.99
2018-08-24T03:38:21.814Z,99.99
2018-08-24T03:39:21.804Z,99.99
2018-08-24T03:40:21.789Z,99.99
2018-08-24T03:41:21.764Z,99.99
2018-08-24T03:42:21.759Z,99.99
2018-08-24T03:43:21.772Z,99.99
2018-08-24T03:44:22.731Z,99.99
2018-08-24T03:45:21.720Z,99.99
2018-08-24T03:46:21.722Z,99.99
2018-08-24T03:47:21.720Z,99.99
2018-08-24T03:48:22.198Z,99.99
2018-08-24T03:49:22.296Z,99.99
2018-08-24T03:50:22.186Z,99.99
2018-08-24T03:51:21.770Z,99.99
2018-08-24T03:52:21.708Z,99.99
2018-08-24T03:53:21.837Z,99.99
2018-08-24T03:54:21.625Z,99.99
2018-08-24T03:55:21.739Z,99.99
2018-08-24T03:56:21.595Z,99.99
2018-08-24T03:57:21.600Z,99.99
2018-08-24T03:58:21.598Z,99.99
2018-08-24T03:59:21.609Z,99.99
2018-08-24T04:00:21.583Z,99.99
2018-08-24T04:01:21.662Z,99.99
2018-08-24T04:02:21.552Z,99.99
2018-08-24T04:03:21.525Z,99.99
2018-08-24T04:04:21.590Z,99.99
2018-08-24T04:05:21.519Z,99.99
2018-08-24T04:06:21.545Z,99.99
2018-08-24T04:07:21.528Z,99.99
2018-08-24T04:08:21.475Z,99.99
2018-08-24T04:09:21.460Z,99.99
2018-08-24T04:10:21.714Z,99.99
2018-08-24T04:11:21.456Z,99.99
2018-08-24T04:12:21.440Z,99.99
2018-08-24T04:13:21.443Z,99.99
2018-08-24T04:14:21.449Z,99.99
2018-08-24T04:15:21.417Z,99.99
2018-08-24T04:16:21.394Z,99.99
2018-08-24T04:17:21.435Z,99.99
2018-08-24T04:18:21.451Z,99.99
2018-08-24T04:19:21.423Z,99.99
2018-08-24T04:20:21.382Z,99.99
2018-08-24T04:21:22.676Z,99.99
2018-08-24T04:22:49.543Z,99.99
2018-08-24T04:23:23.839Z,99.99
2018-08-24T04:24:23.664Z,99.99
2018-08-24T04:25:26.417Z,99.99
2018-08-24T04:26:24.380Z,99.99
2018-08-24T04:27:23.908Z,99.99
2018-08-24T04:28:21.465Z,99.99
2018-08-24T04:29:24.689Z,99.99
2018-08-24T04:30:24.913Z,99.99
2018-08-24T04:31:21.736Z,99.99
2018-08-24T04:32:21.454Z,99.99
2018-08-24T04:33:35.034Z,99.99
2018-08-24T04:34:21.190Z,99.99
2018-08-24T04:35:24.638Z,99.99
2018-08-24T04:36:24.646Z,99.99
2018-08-24T04:37:21.236Z,99.99
2018-08-24T04:38:24.855Z,99.99
2018-08-24T04:39:21.172Z,99.99
2018-08-24T04:40:23.807Z,99.99
2018-08-24T04:41:23.688Z,99.99
2018-08-24T04:42:36.657Z,99.99
2018-08-24T04:43:21.182Z,99.99
2018-08-24T04:44:23.534Z,99.99
2018-08-24T04:45:21.129Z,99.99
2018-08-24T04:46:23.811Z,99.99
2018-08-24T04:47:23.271Z,99.99
2018-08-24T04:48:22.687Z,99.99
2018-08-24T04:49:22.890Z,99.99
2018-08-24T04:50:21.152Z,99.99
2018-08-24T04:51:21.270Z,99.99
2018-08-24T04:52:21.203Z,99.99
2018-08-24T04:53:23.619Z,99.99
2018-08-24T04:54:23.736Z,99.99
2018-08-24T04:55:21.016Z,99.99
2018-08-24T04:56:23.092Z,99.99
2018-08-24T04:57:20.956Z,99.99
2018-08-24T04:58:35.162Z,99.99
2018-08-24T04:59:20.939Z,99.99
2018-08-24T05:00:23.888Z,99.99
2018-08-24T05:01:22.904Z,99.99
2018-08-24T05:02:21.856Z,99.99
2018-08-24T05:03:21.900Z,99.99
2018-08-24T05:04:28.642Z,99.99
2018-08-24T05:05:24.712Z,99.99
2018-08-24T05:06:24.924Z,99.99
2018-08-24T05:07:21.272Z,99.99
2018-08-24T05:08:30.195Z,99.99
2018-08-24T05:09:23.216Z,99.99
2018-08-24T05:10:22.144Z,99.99
2018-08-24T05:11:36.779Z,99.99
2018-08-24T05:12:21.749Z,99.99
2018-08-24T05:13:37.492Z,99.99
2018-08-24T05:14:29.886Z,99.99
2018-08-24T05:15:44.160Z,99.99
2018-08-24T05:16:21.536Z,99.99
2018-08-24T05:17:23.735Z,99.99
2018-08-24T05:18:26.005Z,99.99
2018-08-24T05:19:28.764Z,99.99
2018-08-24T05:20:21.037Z,99.99
2018-08-24T05:21:22.116Z,99.99
2018-08-24T05:22:20.692Z,99.99
2018-08-24T05:23:21.426Z,99.99
2018-08-24T05:24:24.157Z,99.99
2018-08-24T05:25:22.387Z,99.99
2018-08-24T05:26:34.829Z,99.99
2018-08-24T05:27:41.632Z,99.99
2018-08-24T05:28:22.400Z,99.99
2018-08-24T05:29:25.218Z,99.99
2018-08-24T05:30:22.338Z,99.99
2018-08-24T05:31:21.167Z,99.99
2018-08-24T05:32:20.781Z,99.99
2018-08-24T05:33:20.725Z,99.99
2018-08-24T05:34:21.251Z,99.99
2018-08-24T05:35:23.818Z,99.99
2018-08-24T05:36:21.313Z,99.99
2018-08-24T05:37:21.047Z,99.99
2018-08-24T05:38:23.060Z,99.80
2018-08-24T05:39:20.911Z,99.99
2018-08-24T05:40:21.227Z,99.99
2018-08-24T05:41:20.666Z,99.80
2018-08-24T05:42:21.054Z,99.55
2018-08-24T05:43:20.497Z,99.70
2018-08-24T05:44:21.386Z,99.60
2018-08-24T05:45:20.854Z,99.55
2018-08-24T05:46:20.674Z,99.25
2018-08-24T05:47:20.496Z,99.55
2018-08-24T05:48:24.887Z,99.66
2018-08-24T05:49:33.535Z,99.46
2018-08-24T05:50:21.435Z,99.46
2018-08-24T05:51:21.590Z,99.05
2018-08-24T05:52:21.266Z,99.25
2018-08-24T05:53:28.149Z,98.95
2018-08-24T05:54:37.071Z,98.90
2018-08-24T05:55:22.834Z,98.95
2018-08-24T05:56:20.334Z,99.05
2018-08-24T05:57:21.234Z,98.85
2018-08-24T05:58:35.232Z,98.34
2018-08-24T05:59:36.919Z,97.94
2018-08-24T06:00:22.174Z,98.34
2018-08-24T06:01:22.148Z,98.24
2018-08-24T06:02:24.633Z,98.74
2018-08-24T06:03:23.610Z,98.39
2018-08-24T06:04:21.525Z,98.14
2018-08-24T06:05:23.397Z,98.95
2018-08-24T06:06:35.192Z,98.09
2018-08-24T06:07:21.842Z,98.54
2018-08-24T06:08:22.066Z,98.54
2018-08-24T06:09:20.283Z,97.94
2018-08-24T06:10:20.265Z,98.54
2018-08-24T06:11:20.529Z,98.44
2018-08-24T06:12:23.886Z,98.39
2018-08-24T06:13:30.232Z,98.03
2018-08-24T06:14:22.705Z,98.19
2018-08-24T06:15:22.651Z,98.19
2018-08-24T06:16:21.218Z,98.39
2018-08-24T06:17:26.710Z,98.09
2018-08-24T06:18:20.685Z,98.34
2018-08-24T06:19:20.633Z,97.94
2018-08-24T06:20:22.683Z,97.94
2018-08-24T06:21:23.279Z,97.89
2018-08-24T06:22:22.752Z,97.73
2018-08-24T06:23:20.247Z,98.95
2018-08-24T06:24:23.435Z,98.14
2018-08-24T06:25:21.692Z,98.80
2018-08-24T06:26:20.800Z,98.39
2018-08-24T06:27:21.396Z,98.29
2018-08-24T06:28:20.098Z,98.14
2018-08-24T06:29:21.773Z,98.95
2018-08-24T06:30:22.806Z,98.39
2018-08-24T06:31:33.230Z,98.54
2018-08-24T06:32:19.978Z,97.63
2018-08-24T06:33:23.305Z,99.05
2018-08-24T06:34:20.697Z,98.65
2018-08-24T06:35:41.646Z,98.24
2018-08-24T06:36:24.126Z,98.29
2018-08-24T06:37:20.113Z,97.94
2018-08-24T06:38:22.266Z,97.43
2018-08-24T06:39:46.590Z,98.09
2018-08-24T06:40:22.632Z,97.18
2018-08-24T06:41:19.820Z,97.89
2018-08-24T06:42:20.014Z,97.08
2018-08-24T06:43:25.027Z,97.24
2018-08-24T06:44:19.826Z,96.02
2018-08-24T06:45:23.573Z,96.22
2018-08-24T06:46:25.795Z,97.14
2018-08-24T06:47:22.537Z,96.63
2018-08-24T06:48:19.752Z,97.03
2018-08-24T06:49:19.759Z,96.93
2018-08-24T06:50:21.449Z,96.12
2018-08-24T06:51:24.267Z,95.92
2018-08-24T06:52:24.178Z,94.36
2018-08-24T06:53:19.860Z,95.47
2018-08-24T06:54:43.804Z,96.08
2018-08-24T06:55:19.752Z,95.98
2018-08-24T06:56:37.366Z,94.15
2018-08-24T06:57:19.755Z,94.72
2018-08-24T06:58:22.987Z,94.51
2018-08-24T06:59:20.796Z,93.91
2018-08-24T07:00:22.091Z,92.90
2018-08-24T07:01:22.698Z,93.20
2018-08-24T07:02:51.818Z,94.62
2018-08-24T07:03:19.625Z,94.17
2018-08-24T07:04:21.898Z,93.56
2018-08-24T07:05:20.812Z,92.65
2018-08-24T07:06:22.181Z,92.85
2018-08-24T07:07:35.365Z,92.25
2018-08-24T07:08:25.885Z,91.64
2018-08-24T07:09:21.853Z,94.67
2018-08-24T07:10:23.635Z,92.55
2018-08-24T07:11:19.562Z,91.54
2018-08-24T07:12:19.835Z,92.05
2018-08-24T07:13:23.180Z,92.76
2018-08-24T07:14:19.478Z,91.74
2018-08-24T07:15:19.462Z,91.64
2018-08-24T07:16:27.296Z,92.80
2018-08-24T07:17:21.551Z,92.05
2018-08-24T07:18:19.458Z,93.56
2018-08-24T07:19:22.267Z,92.76
2018-08-24T07:20:24.284Z,92.96
2018-08-24T07:21:19.556Z,92.45
2018-08-24T07:22:22.776Z,93.16
2018-08-24T07:23:19.519Z,92.76
2018-08-24T07:24:32.380Z,91.03
2018-08-24T07:25:22.271Z,91.74
2018-08-24T07:26:22.074Z,92.25
2018-08-24T07:27:22.041Z,92.85
2018-08-24T07:28:27.906Z,93.12
2018-08-24T07:29:22.993Z,92.21
2018-08-24T07:30:20.030Z,90.79
2018-08-24T07:31:19.692Z,92.10
2018-08-24T07:32:19.401Z,92.21
2018-08-24T07:33:19.317Z,91.34
2018-08-24T07:34:29.800Z,90.83
2018-08-24T07:35:22.122Z,90.53
2018-08-24T07:36:28.349Z,91.34
2018-08-24T07:37:30.238Z,91.44
2018-08-24T07:38:22.130Z,92.14
2018-08-24T07:39:20.767Z,91.03
2018-08-24T07:40:21.501Z,90.53
2018-08-24T07:41:42.969Z,91.24
2018-08-24T07:42:19.564Z,90.73
2018-08-24T07:43:21.937Z,90.83
2018-08-24T07:44:28.778Z,91.64
2018-08-24T07:45:23.054Z,92.14
2018-08-24T07:46:19.936Z,90.83
2018-08-24T07:47:19.549Z,89.68
2018-08-24T07:48:23.267Z,88.67
2018-08-24T07:49:19.469Z,90.39
2018-08-24T07:50:22.068Z,90.33
2018-08-24T07:51:19.376Z,90.33
2018-08-24T07:52:19.618Z,91.24
2018-08-24T07:53:24.811Z,90.73
2018-08-24T07:54:27.640Z,91.34
2018-08-24T07:55:20.074Z,90.88
2018-08-24T07:56:19.083Z,91.18
2018-08-24T07:57:21.394Z,91.89
2018-08-24T07:58:19.813Z,91.53
2018-08-24T07:59:36.752Z,92.84
2018-08-24T08:00:19.799Z,91.73
2018-08-24T08:01:21.728Z,92.94
2018-08-24T08:02:22.260Z,92.94
2018-08-24T08:03:43.878Z,92.74
2018-08-24T08:04:18.993Z,91.69
2018-08-24T08:05:20.969Z,91.78
2018-08-24T08:06:19.356Z,88.96
2018-08-24T08:07:19.105Z,91.08
2018-08-24T08:08:18.931Z,89.36
2018-08-24T08:09:18.922Z,90.07
2018-08-24T08:10:18.975Z,90.43
2018-08-24T08:11:18.956Z,90.33
2018-08-24T08:12:29.178Z,89.52
2018-08-24T08:13:25.756Z,89.92
2018-08-24T08:14:20.273Z,90.08
2018-08-24T08:15:19.657Z,88.67
2018-08-24T08:16:18.980Z,88.77
2018-08-24T08:17:21.211Z,87.76
2018-08-24T08:18:21.889Z,88.97
2018-08-24T08:19:19.118Z,88.32
2018-08-24T08:20:18.932Z,88.32
2018-08-24T08:21:18.886Z,88.53
2018-08-24T08:22:18.761Z,88.89
2018-08-24T08:23:18.757Z,86.61
2018-08-24T08:24:18.714Z,86.27
2018-08-24T08:25:18.783Z,86.47
2018-08-24T08:26:18.787Z,85.16
2018-08-24T08:27:18.837Z,85.66
2018-08-24T08:28:18.671Z,85.46
2018-08-24T08:29:18.675Z,86.73
2018-08-24T08:30:18.642Z,88.34
2018-08-24T08:31:18.656Z,88.81
2018-08-24T08:32:18.666Z,81.35
2018-08-24T08:33:18.771Z,82.09
2018-08-24T08:34:18.672Z,80.98
2018-08-24T08:35:18.665Z,80.41
2018-08-24T08:36:19.351Z,82.53
2018-08-24T08:37:18.618Z,84.29
2018-08-24T08:38:18.579Z,83.22
2018-08-24T08:39:18.553Z,83.12
2018-08-24T08:40:18.536Z,85.74
2018-08-24T08:41:18.521Z,86.39
2018-08-24T08:42:18.555Z,86.69
2018-08-24T08:43:18.526Z,86.69
2018-08-24T08:44:18.489Z,85.58
2018-08-24T08:45:18.504Z,86.73
2018-08-24T08:46:18.469Z,85.88
2018-08-24T08:47:18.458Z,85.22
2018-08-24T08:48:18.455Z,83.36
2018-08-24T08:49:18.458Z,86.33
2018-08-24T08:50:18.424Z,84.11
2018-08-24T08:51:18.419Z,83.50
2018-08-24T08:52:18.408Z,85.42
2018-08-24T08:53:18.413Z,84.91
2018-08-24T08:54:18.414Z,85.02
2018-08-24T08:55:18.379Z,88.15
2018-08-24T08:56:18.363Z,83.94
2018-08-24T08:57:18.358Z,84.55
2018-08-24T08:58:18.341Z,86.61
2018-08-24T08:59:18.331Z,88.84
2018-08-24T09:00:18.370Z,89.28
2018-08-24T09:01:18.304Z,86.65
2018-08-24T09:02:18.331Z,85.84
2018-08-24T09:03:18.301Z,85.88
2018-08-24T09:04:18.307Z,88.42
2018-08-24T09:05:18.317Z,89.17
2018-08-24T09:06:18.305Z,90.84
2018-08-24T09:07:18.274Z,89.26
2018-08-24T09:08:18.233Z,90.38
2018-08-24T09:09:18.226Z,89.17
2018-08-24T09:10:18.234Z,90.14
2018-08-24T09:11:18.209Z,90.54
2018-08-24T09:12:18.198Z,89.63
2018-08-24T09:13:18.179Z,90.64
2018-08-24T09:14:18.167Z,90.30
2018-08-24T09:15:18.178Z,90.20
2018-08-24T09:16:18.145Z,90.60
2018-08-24T09:17:18.140Z,90.96
2018-08-24T09:18:18.137Z,91.02
2018-08-24T09:19:18.116Z,90.92
2018-08-24T09:20:18.169Z,90.56
2018-08-24T09:21:18.093Z,90.45
2018-08-24T09:22:18.082Z,90.11
2018-08-24T09:23:18.076Z,90.52
2018-08-24T09:24:18.063Z,89.76
2018-08-24T09:25:18.113Z,90.27
2018-08-24T09:26:18.037Z,90.07
2018-08-24T09:27:18.069Z,88.45
2018-08-24T09:28:18.026Z,87.58
2018-08-24T09:29:18.010Z,90.01
2018-08-24T09:30:18.006Z,90.92
2018-08-24T09:31:18.015Z,90.45
2018-08-24T09:32:18.030Z,91.77
2018-08-24T09:33:17.964Z,90.36
2018-08-24T09:34:17.995Z,90.80
2018-08-24T09:35:17.942Z,91.92
2018-08-24T09:36:17.955Z,90.60
2018-08-24T09:37:17.926Z,91.66
2018-08-24T09:38:17.918Z,91.46
2018-08-24T09:39:17.899Z,91.55
2018-08-24T09:40:17.907Z,91.66
2018-08-24T09:41:17.917Z,91.75
2018-08-24T09:42:17.874Z,92.87
2018-08-24T09:43:17.864Z,93.22
2018-08-24T09:44:17.855Z,92.10
2018-08-24T09:45:17.832Z,93.18
2018-08-24T09:46:17.843Z,94.13
2018-08-24T09:47:17.861Z,93.99
2018-08-24T09:48:17.803Z,92.26
2018-08-24T09:49:17.809Z,92.82
2018-08-24T09:50:17.797Z,93.07
2018-08-24T09:51:17.794Z,92.26
2018-08-24T09:52:17.819Z,93.18
2018-08-24T09:53:17.748Z,92.93
2018-08-24T09:54:17.735Z,92.99
2018-08-24T09:55:17.729Z,91.42
2018-08-24T09:56:17.723Z,90.67
2018-08-24T09:57:17.736Z,90.23
2018-08-24T09:58:17.718Z,88.71
2018-08-24T09:59:17.688Z,86.59
2018-08-24T10:00:17.671Z,88.10
2018-08-24T10:01:17.776Z,87.30
2018-08-24T10:02:17.655Z,88.10
2018-08-24T10:03:17.695Z,88.21
2018-08-24T10:04:17.704Z,88.81
2018-08-24T10:05:17.697Z,87.90
2018-08-24T10:06:17.628Z,85.88
2018-08-24T10:07:17.604Z,87.26
2018-08-24T10:08:17.605Z,85.60
2018-08-24T10:09:17.583Z,84.15
2018-08-24T10:10:17.565Z,84.35
2018-08-24T10:11:17.555Z,85.02
2018-08-24T10:12:17.541Z,82.45
2018-08-24T10:13:17.586Z,84.53
2018-08-24T10:14:17.523Z,80.00
2018-08-24T10:15:17.515Z,81.01
2018-08-24T10:16:17.516Z,81.03
2018-08-24T10:17:17.487Z,81.79
2018-08-24T10:18:17.534Z,77.50
2018-08-24T10:19:17.467Z,75.70
2018-08-24T10:20:17.455Z,78.47
2018-08-24T10:21:17.822Z,79.58
2018-08-24T10:22:17.452Z,74.32
2018-08-24T10:23:17.425Z,75.02
2018-08-24T10:24:17.458Z,76.63
2018-08-24T10:25:17.408Z,72.41
2018-08-24T10:26:17.425Z,73.91
2018-08-24T10:27:17.383Z,75.12
2018-08-24T10:28:17.382Z,70.76
2018-08-24T10:29:17.424Z,77.11
2018-08-24T10:30:17.365Z,75.29
2018-08-24T10:31:17.366Z,71.30
2018-08-24T10:32:17.369Z,72.61
2018-08-24T10:33:17.348Z,74.35
2018-08-24T10:34:17.343Z,77.58
2018-08-24T10:35:17.370Z,73.55
2018-08-24T10:36:17.283Z,73.68
2018-08-24T10:37:17.276Z,73.28
2018-08-24T10:38:17.269Z,75.84
2018-08-24T10:39:17.255Z,74.22
2018-08-24T10:40:17.296Z,74.52
2018-08-24T10:41:17.243Z,69.68
2018-08-24T10:42:17.220Z,71.94
2018-08-24T10:43:21.313Z,72.85
2018-08-24T10:44:38.310Z,72.78
2018-08-24T10:45:17.201Z,71.97
2018-08-24T10:46:17.222Z,69.15
2018-08-24T10:47:17.227Z,71.57
2018-08-24T10:48:17.160Z,71.97
2018-08-24T10:49:17.196Z,66.89
2018-08-24T10:50:17.139Z,68.21
2018-08-24T10:51:17.208Z,70.32
2018-08-24T10:52:17.154Z,67.43
2018-08-24T10:53:17.105Z,71.53
2018-08-24T10:54:17.088Z,69.11
2018-08-24T10:55:17.116Z,68.51
2018-08-24T10:56:17.134Z,67.60
2018-08-24T10:57:17.062Z,66.96
2018-08-24T10:58:17.045Z,68.37
2018-08-24T10:59:17.036Z,67.13
2018-08-24T11:00:17.051Z,65.85
2018-08-24T11:01:17.055Z,67.57
2018-08-24T11:02:17.009Z,69.28
2018-08-24T11:03:17.020Z,68.04
2018-08-24T11:04:16.985Z,68.17
2018-08-24T11:05:17.021Z,69.28
2018-08-24T11:06:17.021Z,69.18
2018-08-24T11:07:17.033Z,64.75
2018-08-24T11:08:16.943Z,67.43
2018-08-24T11:09:16.931Z,68.24
2018-08-24T11:10:16.921Z,61.99
2018-08-24T11:11:16.908Z,65.01
2018-08-24T11:12:16.914Z,61.25
2018-08-24T11:13:16.886Z,66.77
2018-08-24T11:14:16.879Z,63.31
2018-08-24T11:15:16.863Z,62.58
2018-08-24T11:16:16.862Z,61.14
2018-08-24T11:17:16.870Z,59.83
2018-08-24T11:18:16.828Z,58.29
2018-08-24T11:19:16.818Z,58.20
2018-08-24T11:20:16.814Z,56.96
2018-08-24T11:21:16.802Z,55.99
2018-08-24T11:22:16.819Z,58.34
2018-08-24T11:23:16.780Z,57.51
2018-08-24T11:24:16.764Z,54.20
2018-08-24T11:25:16.753Z,58.31
2018-08-24T11:26:16.800Z,57.06
2018-08-24T11:27:16.750Z,55.73
2018-08-24T11:28:16.747Z,53.97
2018-08-24T11:29:16.774Z,53.07
2018-08-24T11:30:16.700Z,49.94
2018-08-24T11:31:16.692Z,54.60
2018-08-24T11:32:16.684Z,49.37
2018-08-24T11:33:16.743Z,51.17
2018-08-24T11:34:16.664Z,48.27
2018-08-24T11:35:16.656Z,47.79
2018-08-24T11:36:16.736Z,50.92
2018-08-24T11:37:16.627Z,49.76
2018-08-24T11:38:16.619Z,49.29
2018-08-24T11:39:16.628Z,49.91
2018-08-24T11:40:16.600Z,49.91
2018-08-24T11:41:16.592Z,49.54
2018-08-24T11:42:16.642Z,48.11
2018-08-24T11:43:16.568Z,48.31
2018-08-24T11:44:16.582Z,49.81
2018-08-24T11:45:16.543Z,48.79
2018-08-24T11:46:16.548Z,49.62
2018-08-24T11:47:16.533Z,44.89
2018-08-24T11:48:16.531Z,48.76
2018-08-24T11:49:16.509Z,49.04
2018-08-24T11:50:16.531Z,48.53
2018-08-24T11:51:16.483Z,51.72
2018-08-24T11:52:16.480Z,47.99
2018-08-24T11:53:16.468Z,45.63
2018-08-24T11:54:16.474Z,46.34
2018-08-24T11:55:16.463Z,43.19
2018-08-24T11:56:16.432Z,42.59
2018-08-24T11:57:16.418Z,43.94
2018-08-24T11:58:16.423Z,44.37
2018-08-24T11:59:16.430Z,41.12
2018-08-24T12:00:16.412Z,37.64
2018-08-24T12:01:16.384Z,39.13
2018-08-24T12:02:16.368Z,37.66
2018-08-24T12:03:16.363Z,38.54
2018-08-24T12:04:16.351Z,42.11
2018-08-24T12:05:16.371Z,37.72
2018-08-24T12:06:16.333Z,37.72
2018-08-24T12:07:16.318Z,38.00
2018-08-24T12:08:16.330Z,39.29
2018-08-24T12:09:16.297Z,41.26
2018-08-24T12:10:16.295Z,38.60
2018-08-24T12:11:16.300Z,39.75
2018-08-24T12:12:16.336Z,40.64
2018-08-24T12:13:16.261Z,42.95
2018-08-24T12:14:16.371Z,41.60
2018-08-24T12:15:16.238Z,42.63
2018-08-24T12:16:16.246Z,42.67
2018-08-24T12:17:16.218Z,41.38
2018-08-24T12:18:16.254Z,40.52
2018-08-24T12:19:16.197Z,43.09
2018-08-24T12:20:16.188Z,41.33
2018-08-24T12:21:16.298Z,43.09
2018-08-24T12:22:16.162Z,43.79
2018-08-24T12:23:16.153Z,41.41
2018-08-24T12:24:16.191Z,41.14
2018-08-24T12:25:16.140Z,39.61
2018-08-24T12:26:16.127Z,39.86
2018-08-24T12:27:16.198Z,41.14
2018-08-24T12:28:16.105Z,41.41
2018-08-24T12:29:16.093Z,40.78
2018-08-24T12:30:16.078Z,40.74
2018-08-24T12:31:16.072Z,39.70
2018-08-24T12:32:16.090Z,41.28
2018-08-24T12:33:16.073Z,39.72
2018-08-24T12:34:16.038Z,39.23
2018-08-24T12:35:16.041Z,36.52
2018-08-24T12:36:16.028Z,37.56
2018-08-24T12:37:16.014Z,35.26
2018-08-24T12:38:16.025Z,34.43
2018-08-24T12:39:15.991Z,35.01
2018-08-24T12:40:15.975Z,38.34
2018-08-24T12:41:16.053Z,39.40
2018-08-24T12:42:15.951Z,32.17
2018-08-24T12:43:16.001Z,34.84
2018-08-24T12:44:15.937Z,36.29
2018-08-24T12:45:15.928Z,38.75
2018-08-24T12:46:15.918Z,33.21
2018-08-24T12:47:15.908Z,32.43
2018-08-24T12:48:15.913Z,32.73
2018-08-24T12:49:15.916Z,32.39
2018-08-24T12:50:15.882Z,33.28
2018-08-24T12:51:15.872Z,35.06
2018-08-24T12:52:15.938Z,34.84